AKST,Max TemperatureF,Mean TemperatureF,Min TemperatureF,Max Dew PointF,MeanDew PointF,Min DewpointF,Max Humidity, Mean Humidity, Min Humidity, Max Sea Level PressureIn, Mean Sea Level PressureIn, Min Sea Level PressureIn, Max VisibilityMiles, Mean VisibilityMiles, Min VisibilityMiles, Max Wind SpeedMPH, Mean Wind SpeedMPH, Max Gust SpeedMPH,PrecipitationIn, CloudCover, Events, WindDirDegrees
2013-1-1,27,22,17,25,22,15,100,90,85,29.19,29.00,28.88,10,8,4,16,9,,0.00,7,Rain-Snow,343
2013-1-2,30,26,21,30,27,20,100,94,85,28.99,28.93,28.88,10,6,1,16,9,,0.02,8,Snow,34
2013-1-3,30,26,23,28,26,21,96,89,82,29.16,29.07,28.97,10,10,9,12,6,,0.00,6,,298
2013-1-4,33,28,23,34,29,21,100,92,81,29.19,28.91,28.56,10,5,1,33,13,39,0.01,7,Snow,90
2013-1-5,35,32,23,34,30,21,100,90,75,29.01,28.81,28.57,10,8,2,31,16,40,0.01,6,Snow,246
2013-1-6,27,23,19,25,20,17,100,93,88,29.32,29.16,29.03,10,10,10,9,4,,0.00,2,,74
2013-1-7,33,30,26,32,27,23,100,86,66,29.83,29.59,29.31,10,7,0,23,11,31,0.00,6,Fog-Snow,279
2013-1-8,36,33,30,36,33,26,100,94,73,29.83,29.61,29.48,10,6,2,31,19,43,0.00,8,Snow,161
2013-1-9,35,34,32,36,32,27,100,93,75,29.51,29.45,29.37,10,6,2,25,9,37,0.02,7,Snow,205
2013-1-10,36,33,30,36,31,27,100,94,75,29.59,29.30,29.09,10,5,0,34,20,43,0.21,7,Fog-Rain-Snow,237
2013-1-11,34,32,30,32,30,27,100,94,81,29.75,29.49,29.06,10,3,0,39,19,48,0.01,7,Fog-Snow,107
2013-1-12,36,33,30,36,32,28,100,100,92,29.07,28.93,28.86,10,3,0,38,17,45,0.20,8,Fog-Rain-Snow,253
2013-1-13,30,28,26,27,22,19,93,77,66,29.44,29.33,29.07,10,10,8,17,12,24,0.00,8,,323
2013-1-14,30,23,16,28,23,11,100,84,67,29.97,29.73,29.45,10,6,0,16,8,24,0.02,7,Fog-Snow,269
2013-1-15,28,23,16,24,18,12,85,74,61,30.29,30.18,29.99,10,10,10,16,9,,0.00,2,,35
2013-1-16,25,22,19,20,19,15,86,82,77,30.26,30.13,30.02,10,10,9,34,21,38,0.00,1,Snow,68
2013-1-17,23,21,19,19,16,15,93,86,81,30.04,29.93,29.84,10,4,0,44,29,50,0.00,8,Fog-Snow,71
2013-1-18,23,21,19,21,18,16,100,91,85,29.88,29.77,29.51,5,2,0,47,37,54,0.00,8,Fog-Snow,53
2013-1-19,35,29,23,36,32,11,100,99,57,29.48,28.98,28.72,10,2,0,46,35,53,0.04,8,Fog-Rain-Snow,67
2013-1-20,37,35,33,36,34,30,100,96,82,29.10,28.98,28.74,10,6,1,23,14,32,0.03,8,Snow,132
2013-1-21,37,35,33,37,35,31,100,98,89,29.41,29.24,29.08,10,5,0,22,16,29,0.09,8,Fog-Snow,134
2013-1-22,34,32,30,31,28,24,100,82,70,29.48,29.43,29.36,10,9,4,20,14,26,0.00,8,Rain,310
2013-1-23,30,29,28,30,28,26,100,94,92,29.53,29.39,29.30,10,4,2,24,18,31,0.00,8,Snow,3
2013-1-24,30,27,24,27,25,22,96,91,86,29.80,29.69,29.54,10,7,2,16,9,20,0.00,8,Snow,350
2013-1-25,26,24,23,23,22,21,93,89,86,29.93,29.86,29.80,10,6,1,23,12,26,0.00,8,Rain-Snow,64
2013-1-26,28,26,21,25,23,15,93,87,78,30.14,30.01,29.91,10,10,10,18,14,,0.00,8,,72
2013-1-27,19,17,15,14,12,10,81,77,68,30.19,30.05,29.84,10,5,1,46,27,55,0.00,7,Snow,54
2013-1-28,23,16,12,20,13,9,96,86,79,29.84,29.35,28.92,3,1,0,48,44,59,0.00,8,Fog-Snow,42
2013-1-29,33,28,23,34,30,21,100,96,85,29.08,28.90,28.81,10,4,1,36,23,41,0.00,8,Snow,343
2013-1-30,33,32,30,26,23,18,85,71,56,29.62,29.36,29.08,10,10,8,25,21,31,0.00,5,Snow,243
2013-1-31,33,26,19,27,22,16,89,81,66,29.82,29.77,29.65,10,10,9,25,10,,0.00,1,Snow,41